createdAt,value
2023-06-08T00:00:16.015Z,100397.25
2023-06-08T00:03:18.764Z,100399.97
2023-06-08T00:06:23.898Z,100392.00
2023-06-08T00:09:25.574Z,100393.06
2023-06-08T00:12:27.747Z,100394.94
2023-06-08T00:15:29.406Z,100390.53
2023-06-08T00:18:31.639Z,100390.97
2023-06-08T00:21:33.330Z,100383.84
2023-06-08T00:24:36.585Z,100392.19
2023-06-08T00:27:39.669Z,100386.56
2023-06-08T00:30:42.174Z,100378.59
2023-06-08T00:33:43.966Z,100353.22
2023-06-08T00:36:46.360Z,100373.34
2023-06-08T00:39:48.146Z,100372.97
2023-06-08T00:42:51.417Z,100378.41
2023-06-08T00:45:56.510Z,100370.41
2023-06-08T00:48:58.739Z,100375.22
2023-06-08T00:52:02.107Z,100374.41
2023-06-08T00:55:04.126Z,100374.44
2023-06-08T00:58:06.221Z,100387.00
2023-06-08T01:01:08.325Z,100378.63
2023-06-08T01:04:10.265Z,100381.75
2023-06-08T01:07:27.403Z,100377.81
2023-06-08T01:10:38.053Z,100379.47
2023-06-08T01:14:01.390Z,100389.31
2023-06-08T01:17:06.456Z,100385.97
2023-06-08T01:20:22.212Z,100392.25
2023-06-08T01:23:39.760Z,100384.72
2023-06-08T01:26:45.367Z,100390.56
2023-06-08T01:29:47.762Z,100380.09
2023-06-08T01:32:49.665Z,100385.38
2023-06-08T01:36:06.016Z,100392.06
2023-06-08T01:39:28.057Z,100387.91
2023-06-08T01:42:31.608Z,100386.63
2023-06-08T01:45:39.394Z,100386.19
2023-06-08T01:48:42.043Z,100387.88
2023-06-08T01:51:44.372Z,100382.44
2023-06-08T01:54:46.163Z,100389.34
2023-06-08T01:57:48.061Z,100395.81
2023-06-08T02:00:50.109Z,100392.28
2023-06-08T02:03:52.075Z,100391.22
2023-06-08T02:06:54.899Z,100384.31
2023-06-08T02:09:56.554Z,100385.56
2023-06-08T02:12:58.543Z,100390.38
2023-06-08T02:16:00.243Z,100390.81
2023-06-08T02:19:05.532Z,100382.84
2023-06-08T02:22:07.147Z,100386.41
2023-06-08T02:25:12.883Z,100385.56
2023-06-08T02:28:17.589Z,100383.88
2023-06-08T02:31:19.637Z,100380.53
2023-06-08T02:34:21.345Z,100378.44
2023-06-08T02:37:24.083Z,100383.88
2023-06-08T02:40:26.377Z,100385.38
2023-06-08T02:43:28.094Z,100385.78
2023-06-08T02:46:30.150Z,100384.94
2023-06-08T02:49:31.997Z,100373.44
2023-06-08T02:52:33.720Z,100382.00
2023-06-08T02:55:35.846Z,100377.41
2023-06-08T02:58:37.525Z,100369.84
2023-06-08T03:01:39.550Z,100368.59
2023-06-08T03:04:41.222Z,100363.34
2023-06-08T03:07:43.216Z,100365.03
2023-06-08T03:10:45.494Z,100371.12
2023-06-08T03:13:47.767Z,100378.25
2023-06-08T03:16:49.753Z,100382.66
2023-06-08T03:19:52.234Z,100369.69
2023-06-08T03:22:53.870Z,100373.84
2023-06-08T03:25:55.542Z,100362.53
2023-06-08T03:28:57.559Z,100372.22
2023-06-08T03:31:59.748Z,100362.75
2023-06-08T03:35:01.565Z,100369.66
2023-06-08T03:38:06.687Z,100375.94
2023-06-08T03:41:08.483Z,100373.22
2023-06-08T03:44:10.521Z,100369.28
2023-06-08T03:47:12.291Z,100383.09
2023-06-08T03:50:13.923Z,100372.19
2023-06-08T03:53:15.603Z,100378.91
2023-06-08T03:56:17.290Z,100375.78
2023-06-08T03:59:20.155Z,100377.44
2023-06-08T04:02:21.890Z,100379.94
2023-06-08T04:05:23.847Z,100376.63
2023-06-08T04:08:25.563Z,100383.31
2023-06-08T04:11:27.417Z,100359.22
2023-06-08T04:14:29.110Z,100373.50
2023-06-08T04:17:31.483Z,100380.00
2023-06-08T04:20:33.365Z,100380.81
2023-06-08T04:23:36.912Z,100380.22
2023-06-08T04:26:39.021Z,100378.94
2023-06-08T04:29:40.685Z,100378.72
2023-06-08T04:32:42.426Z,100381.47
2023-06-08T04:35:44.234Z,100373.91
2023-06-08T04:38:45.926Z,100383.13
2023-06-08T04:41:48.766Z,100386.88
2023-06-08T04:44:50.510Z,100391.72
2023-06-08T04:47:52.247Z,100386.66
2023-06-08T04:50:55.329Z,100381.66
2023-06-08T04:53:58.001Z,100379.56
2023-06-08T04:56:59.729Z,100386.47
2023-06-08T05:00:01.638Z,100386.03
2023-06-08T05:03:03.371Z,100388.75
2023-06-08T05:06:05.382Z,100396.09
2023-06-08T05:09:07.303Z,100396.34
2023-06-08T05:12:09.668Z,100397.97
2023-06-08T05:15:11.481Z,100399.47
2023-06-08T05:18:13.314Z,100412.03
2023-06-08T05:21:16.022Z,100401.53
2023-06-08T05:24:19.404Z,100408.03
2023-06-08T05:27:21.236Z,100407.41
2023-06-08T05:30:23.058Z,100411.41
2023-06-08T05:33:24.748Z,100403.41
2023-06-08T05:36:26.510Z,100409.06
2023-06-08T05:39:29.094Z,100404.62
2023-06-08T05:42:31.085Z,100411.97
2023-06-08T05:45:32.733Z,100410.28
2023-06-08T05:48:38.420Z,100401.28
2023-06-08T05:51:40.139Z,100397.69
2023-06-08T05:54:42.290Z,100404.19
2023-06-08T05:57:44.277Z,100405.66
2023-06-08T06:00:46.297Z,100411.75
2023-06-08T06:03:53.888Z,100404.97
2023-06-08T06:06:55.860Z,100406.00
2023-06-08T06:09:58.559Z,100399.00
2023-06-08T06:13:03.659Z,100399.19
2023-06-08T06:16:05.853Z,100398.66
2023-06-08T06:19:08.840Z,100390.69
2023-06-08T06:22:24.925Z,100401.56
2023-06-08T06:25:27.993Z,100407.47
2023-06-08T06:28:32.112Z,100403.06
2023-06-08T06:31:37.751Z,100412.09
2023-06-08T06:34:39.525Z,100413.16
2023-06-08T06:37:44.418Z,100408.31
2023-06-08T06:40:46.094Z,100408.28
2023-06-08T06:43:47.909Z,100412.44
2023-06-08T06:46:59.443Z,100407.13
2023-06-08T06:50:01.119Z,100406.31
2023-06-08T06:53:03.175Z,100412.38
2023-06-08T06:56:06.189Z,100422.22
2023-06-08T06:59:10.038Z,100414.09
2023-06-08T07:02:21.257Z,100409.81
2023-06-08T07:05:38.238Z,100413.06
2023-06-08T07:08:58.152Z,100406.63
2023-06-08T07:12:14.196Z,100399.75
2023-06-08T07:15:18.414Z,100405.81
2023-06-08T07:18:20.288Z,100401.16
2023-06-08T07:21:26.929Z,100400.75
2023-06-08T07:25:23.920Z,100405.25
2023-06-08T07:27:58.839Z,100406.97
2023-06-08T07:31:00.751Z,100396.69
2023-06-08T07:34:02.591Z,100380.00
2023-06-08T07:37:27.024Z,100410.09
2023-06-08T07:40:29.045Z,100407.94
2023-06-08T07:43:31.070Z,100410.59
2023-06-08T07:46:32.927Z,100406.91
2023-06-08T07:49:44.265Z,100399.19
2023-06-08T07:52:46.920Z,100410.44
2023-06-08T07:55:48.846Z,100404.25
2023-06-08T07:58:50.552Z,100410.88
2023-06-08T08:01:52.288Z,100406.94
2023-06-08T08:04:54.097Z,100410.03
2023-06-08T08:07:56.422Z,100403.66
2023-06-08T08:10:59.352Z,100405.44
2023-06-08T08:14:01.155Z,100405.44
2023-06-08T08:17:03.250Z,100401.25
2023-06-08T08:20:05.770Z,100408.00
2023-06-08T08:23:09.108Z,100404.19
2023-06-08T08:26:11.136Z,100404.00
2023-06-08T08:29:12.833Z,100401.62
2023-06-08T08:32:14.880Z,100401.34
2023-06-08T08:35:24.241Z,100402.25
2023-06-08T08:38:26.647Z,100402.75
2023-06-08T08:41:32.591Z,100405.50
2023-06-08T08:44:35.792Z,100404.66
2023-06-08T08:47:40.980Z,100402.28
2023-06-08T08:50:43.678Z,100391.69
2023-06-08T08:53:51.034Z,100389.91
2023-06-08T08:56:56.544Z,100399.09
2023-06-08T09:00:15.932Z,100392.75
2023-06-08T09:03:20.925Z,100392.00
2023-06-08T09:06:24.010Z,100392.91
2023-06-08T09:09:26.535Z,100395.53
2023-06-08T09:12:38.980Z,100387.00
2023-06-08T09:15:40.992Z,100386.56
2023-06-08T09:18:44.807Z,100376.88
2023-06-08T09:21:49.348Z,100381.16
2023-06-08T09:24:51.290Z,100372.09
2023-06-08T09:27:53.146Z,100371.69
2023-06-08T09:30:57.683Z,100367.75
2023-06-08T09:34:09.104Z,100366.09
2023-06-08T09:37:11.169Z,100361.91
2023-06-08T09:40:20.272Z,100365.38
2023-06-08T09:43:34.684Z,100357.53
2023-06-08T09:46:39.687Z,100346.13
2023-06-08T09:49:41.560Z,100353.34
2023-06-08T09:52:48.300Z,100349.72
2023-06-08T09:55:52.340Z,100342.94
2023-06-08T09:58:57.299Z,100345.56
2023-06-08T10:02:05.465Z,100343.47
2023-06-08T10:05:11.690Z,100334.12
2023-06-08T10:08:20.336Z,100325.59
2023-06-08T10:11:24.160Z,100321.34
2023-06-08T10:14:26.980Z,100313.16
2023-06-08T10:17:30.392Z,100308.78
2023-06-08T10:20:32.784Z,100308.16
2023-06-08T10:23:35.152Z,100298.19
2023-06-08T10:26:37.143Z,100294.87
2023-06-08T10:29:39.055Z,100290.72
2023-06-08T10:32:41.432Z,100291.94
2023-06-08T10:36:01.932Z,100297.38
2023-06-08T10:39:08.086Z,100297.87
2023-06-08T10:42:18.268Z,100296.81
2023-06-08T10:45:31.139Z,100292.16
2023-06-08T10:48:37.474Z,100288.22
2023-06-08T10:51:43.568Z,100285.78
2023-06-08T10:54:59.666Z,100291.13
2023-06-08T10:58:20.033Z,100285.66
2023-06-08T11:01:22.221Z,100276.25
2023-06-08T11:04:29.503Z,100273.09
2023-06-08T11:07:36.105Z,100273.97
2023-06-08T11:10:39.620Z,100269.69
2023-06-08T11:17:02.081Z,100270.09
2023-06-08T11:20:05.152Z,100266.16
2023-06-08T11:23:08.770Z,100267.31
2023-06-08T11:26:11.954Z,100279.00
2023-06-08T11:29:28.198Z,100271.09
2023-06-08T11:32:34.109Z,100281.31
2023-06-08T11:35:42.402Z,100280.25
2023-06-08T11:38:58.847Z,100284.75
2023-06-08T11:45:23.231Z,100271.84
2023-06-08T11:48:25.992Z,100269.19
2023-06-08T11:51:28.738Z,100259.12
2023-06-08T11:54:35.210Z,100250.09
2023-06-08T11:57:42.538Z,100242.72
2023-06-08T12:00:44.929Z,100245.88
2023-06-08T12:03:48.799Z,100239.34
2023-06-08T12:06:51.132Z,100230.37
2023-06-08T12:09:53.017Z,100220.31
2023-06-08T12:12:54.757Z,100219.75
2023-06-08T12:15:56.449Z,100222.94
2023-06-08T12:19:02.612Z,100231.66
2023-06-08T12:22:11.466Z,100221.97
2023-06-08T12:25:13.347Z,100221.94
2023-06-08T12:28:22.897Z,100218.81
2023-06-08T12:31:38.961Z,100229.66
2023-06-08T12:34:41.349Z,100216.84
2023-06-08T12:37:43.265Z,100222.12
2023-06-08T12:40:45.786Z,100221.56
2023-06-08T12:43:47.521Z,100221.06
2023-06-08T12:46:49.202Z,100228.81
2023-06-08T12:49:50.930Z,100219.25
2023-06-08T12:52:53.691Z,100213.28
2023-06-08T12:55:55.575Z,100203.94
2023-06-08T12:58:57.340Z,100209.00
2023-06-08T13:01:59.221Z,100211.97
2023-06-08T13:05:01.296Z,100213.22
2023-06-08T13:08:09.284Z,100205.78
2023-06-08T13:11:11.438Z,100219.06
2023-06-08T13:14:13.108Z,100222.81
2023-06-08T13:17:14.890Z,100219.97
2023-06-08T13:20:16.730Z,100228.16
2023-06-08T13:23:19.888Z,100217.72
2023-06-08T13:26:22.755Z,100222.12
2023-06-08T13:29:27.292Z,100228.19
2023-06-08T13:32:29.298Z,100232.59
2023-06-08T13:35:31.607Z,100214.16
2023-06-08T13:38:33.375Z,100209.78
2023-06-08T13:41:35.030Z,100211.69
2023-06-08T13:44:36.675Z,100216.53
2023-06-08T13:47:38.742Z,100216.94
2023-06-08T13:50:40.522Z,100209.91
2023-06-08T13:53:43.301Z,100208.22
2023-06-08T13:56:45.059Z,100197.47
2023-06-08T13:59:46.850Z,100191.34
2023-06-08T14:02:48.678Z,100199.41
2023-06-08T14:05:50.465Z,100193.44
2023-06-08T14:08:52.384Z,100185.38
2023-06-08T14:11:55.799Z,100171.69
2023-06-08T14:14:57.607Z,100174.78
2023-06-08T14:17:59.254Z,100178.25
2023-06-08T14:21:01.060Z,100164.09
2023-06-08T14:24:02.822Z,100173.22
2023-06-08T14:27:05.117Z,100150.22
2023-06-08T14:30:07.939Z,100156.00
2023-06-08T14:33:10.243Z,100148.41
2023-06-08T14:36:11.976Z,100142.53
2023-06-08T14:39:13.670Z,100149.50
2023-06-08T14:42:15.371Z,100149.66
2023-06-08T14:45:17.710Z,100149.75
2023-06-08T14:48:19.542Z,100148.69
2023-06-08T14:51:36.824Z,100153.13
2023-06-08T14:54:40.110Z,100148.66
2023-06-08T14:57:41.918Z,100145.84
2023-06-08T15:00:43.566Z,100136.78
2023-06-08T15:03:46.047Z,100134.38
2023-06-08T15:06:48.055Z,100126.19
2023-06-08T15:09:49.753Z,100130.53
2023-06-08T15:12:51.436Z,100121.87
2023-06-08T15:15:53.422Z,100124.38
2023-06-08T15:18:58.627Z,100120.47
2023-06-08T15:22:00.369Z,100115.66
2023-06-08T15:25:04.364Z,100112.59
2023-06-08T15:28:15.462Z,100119.97
2023-06-08T15:31:17.175Z,100112.66
2023-06-08T15:34:18.910Z,100107.19
2023-06-08T15:37:29.177Z,100114.94
2023-06-08T15:40:30.951Z,100119.34
2023-06-08T15:43:32.607Z,100122.41
2023-06-08T15:46:34.556Z,100127.59
2023-06-08T15:49:36.474Z,100113.78
2023-06-08T15:52:38.126Z,100126.84
2023-06-08T15:55:39.956Z,100121.66
2023-06-08T15:58:41.810Z,100119.25
2023-06-08T16:01:43.723Z,100114.28
2023-06-08T16:04:45.896Z,100108.72
2023-06-08T16:07:47.730Z,100100.81
2023-06-08T16:10:50.772Z,100103.56
2023-06-08T16:13:52.502Z,100097.50
2023-06-08T16:16:57.156Z,100100.75
2023-06-08T16:19:59.386Z,100111.41
2023-06-08T16:23:01.162Z,100103.88
2023-06-08T16:26:03.021Z,100107.22
2023-06-08T16:29:05.304Z,100112.00
2023-06-08T16:32:07.305Z,100106.09
2023-06-08T16:35:09.260Z,100105.75
2023-06-08T16:38:11.004Z,100105.50
2023-06-08T16:41:12.828Z,100097.78
2023-06-08T16:44:14.651Z,100104.72
2023-06-08T16:47:16.314Z,100105.88
2023-06-08T16:50:18.317Z,100103.38
2023-06-08T16:53:20.041Z,100107.31
2023-06-08T16:56:21.746Z,100106.25
2023-06-08T16:59:23.570Z,100103.97
2023-06-08T17:02:25.254Z,100103.41
2023-06-08T17:05:27.237Z,100107.34
2023-06-08T17:08:30.486Z,100111.66
2023-06-08T17:11:32.169Z,100117.84
2023-06-08T17:14:34.119Z,100121.31
2023-06-08T17:17:36.089Z,100126.22
2023-06-08T17:20:38.037Z,100126.34
2023-06-08T17:23:39.915Z,100128.16
2023-06-08T17:26:42.110Z,100121.13
2023-06-08T17:29:43.878Z,100127.78
2023-06-08T17:32:45.648Z,100131.00
2023-06-08T17:35:47.416Z,100132.28
2023-06-08T17:38:49.116Z,100129.66
2023-06-08T17:41:51.276Z,100128.25
2023-06-08T17:44:53.220Z,100120.03
2023-06-08T17:47:54.963Z,100117.41
2023-06-08T17:50:56.734Z,100119.75
2023-06-08T17:53:58.564Z,100114.41
2023-06-08T17:57:00.318Z,100112.13
2023-06-08T18:00:02.118Z,100111.87
2023-06-08T18:03:05.192Z,100106.88
2023-06-08T18:06:20.063Z,100100.47
2023-06-08T18:09:26.397Z,100098.66
2023-06-08T18:12:30.982Z,100093.03
2023-06-08T18:15:36.248Z,100102.09
2023-06-08T18:18:38.424Z,100108.44
2023-06-08T18:21:41.007Z,100114.34
2023-06-08T18:24:42.797Z,100114.09
2023-06-08T18:27:44.525Z,100119.81
2023-06-08T18:30:46.424Z,100126.34
2023-06-08T18:33:48.527Z,100124.34
2023-06-08T18:36:50.423Z,100125.84
2023-06-08T18:40:12.185Z,100140.38
2023-06-08T18:43:13.928Z,100137.62
2023-06-08T18:46:17.835Z,100136.22
2023-06-08T18:49:20.254Z,100142.16
2023-06-08T18:52:22.446Z,100138.59
2023-06-08T18:55:24.985Z,100137.50
2023-06-08T18:58:29.707Z,100144.41
2023-06-08T19:01:34.457Z,100153.22
2023-06-08T19:04:36.849Z,100146.31
2023-06-08T19:07:39.241Z,100147.03
2023-06-08T19:10:41.660Z,100151.50
2023-06-08T19:13:43.643Z,100153.22
2023-06-08T19:16:45.950Z,100151.81
2023-06-08T19:19:48.204Z,100158.34
2023-06-08T19:22:49.989Z,100161.91
2023-06-08T19:25:51.863Z,100160.25
2023-06-08T19:28:53.850Z,100164.03
2023-06-08T19:31:56.494Z,100168.28
2023-06-08T19:34:58.736Z,100164.97
2023-06-08T19:38:00.723Z,100174.47
2023-06-08T19:41:03.300Z,100170.31
2023-06-08T19:44:06.154Z,100168.00
2023-06-08T19:47:08.113Z,100172.87
2023-06-08T19:50:10.903Z,100173.94
2023-06-08T19:53:13.199Z,100168.94
2023-06-08T19:56:15.399Z,100173.94
2023-06-08T19:59:18.268Z,100166.56
2023-06-08T20:02:20.087Z,100168.00
2023-06-08T20:05:21.771Z,100174.94
2023-06-08T20:08:24.898Z,100170.06
2023-06-08T20:11:28.101Z,100179.34
2023-06-08T20:14:30.024Z,100170.53
2023-06-08T20:17:31.995Z,100166.34
2023-06-08T20:20:33.945Z,100157.53
2023-06-08T20:23:38.765Z,100161.34
2023-06-08T20:26:40.949Z,100154.69
2023-06-08T20:29:42.681Z,100161.03
2023-06-08T20:32:45.364Z,100160.69
2023-06-08T20:35:47.115Z,100173.13
2023-06-08T20:38:48.865Z,100165.38
2023-06-08T20:41:50.775Z,100166.88
2023-06-08T20:44:52.449Z,100172.59
2023-06-08T20:47:54.272Z,100169.25
2023-06-08T20:50:56.079Z,100164.03
2023-06-08T20:53:58.212Z,100164.47
2023-06-08T20:57:00.322Z,100151.12
2023-06-08T21:00:02.313Z,100166.81
2023-06-08T21:03:04.331Z,100174.41
2023-06-08T21:06:06.226Z,100172.50
2023-06-08T21:09:07.967Z,100178.22
2023-06-08T21:12:10.152Z,100169.19
2023-06-08T21:15:12.150Z,100178.44
2023-06-08T21:18:13.924Z,100179.94
2023-06-08T21:21:15.756Z,100191.69
2023-06-08T21:24:18.181Z,100196.31
2023-06-08T21:27:21.013Z,100189.66
2023-06-08T21:30:27.299Z,100192.63
2023-06-08T21:33:29.274Z,100197.47
2023-06-08T21:36:31.162Z,100195.19
2023-06-08T21:39:32.797Z,100194.78
2023-06-08T21:42:34.441Z,100184.50
2023-06-08T21:45:36.082Z,100187.69
2023-06-08T21:48:38.064Z,100186.25
2023-06-08T21:51:39.835Z,100193.63
2023-06-08T21:54:41.565Z,100190.88
2023-06-08T21:57:43.866Z,100196.81
2023-06-08T22:00:46.115Z,100189.03
2023-06-08T22:03:48.422Z,100178.59
2023-06-08T22:06:50.537Z,100177.97
2023-06-08T22:09:52.287Z,100187.84
2023-06-08T22:12:53.961Z,100187.38
2023-06-08T22:15:55.656Z,100178.59
2023-06-08T22:18:58.041Z,100184.50
2023-06-08T22:21:59.728Z,100175.06
2023-06-08T22:25:01.539Z,100180.97
2023-06-08T22:28:04.403Z,100175.34
2023-06-08T22:31:06.098Z,100177.47
2023-06-08T22:34:07.831Z,100177.94
2023-06-08T22:37:11.932Z,100166.59
2023-06-08T22:40:13.725Z,100175.66
2023-06-08T22:43:15.406Z,100174.19
2023-06-08T22:46:17.595Z,100170.47
2023-06-08T22:49:19.627Z,100158.47
2023-06-08T22:52:21.455Z,100157.66
2023-06-08T22:55:23.336Z,100161.66
2023-06-08T22:58:25.070Z,100162.94
2023-06-08T23:01:26.948Z,100155.78
2023-06-08T23:04:29.047Z,100154.09
2023-06-08T23:07:30.749Z,100155.91
2023-06-08T23:10:32.794Z,100148.34
2023-06-08T23:13:34.511Z,100135.97
2023-06-08T23:16:36.261Z,100134.06
2023-06-08T23:19:37.981Z,100139.53
2023-06-08T23:22:39.730Z,100142.50
2023-06-08T23:25:43.599Z,100145.16
2023-06-08T23:28:45.347Z,100132.97
2023-06-08T23:31:47.163Z,100131.66
2023-06-08T23:34:50.572Z,100130.41
2023-06-08T23:37:52.299Z,100121.59
2023-06-08T23:40:54.375Z,100114.69
2023-06-08T23:43:56.320Z,100118.47
2023-06-08T23:46:58.134Z,100121.22
2023-06-08T23:50:00.119Z,100122.03
2023-06-08T23:53:01.837Z,100121.44
2023-06-08T23:56:03.717Z,100131.28
2023-06-08T23:59:05.830Z,100128.00
